Time;durP1;ratioP1;P1;durP2;ratioP2;P2;SDS_P1;SDS_P2;PMS_P1;PMS_P2;Temp;Humidity;BMP_temperature;BMP_pressure;BME280_temperature;BME280_humidity;BME280_pressure;Samples;Min_cycle;Max_cycle;Signal;HPM_P1;HPM_P2
2021/04/25 00:01:40;;;;;;;7.93;4.27;;;11.80;47.90;;;;;;5029888;28;20096;-81
2021/04/25 00:04:06;;;;;;;8.47;4.03;;;11.80;48.10;;;;;;5031948;28;20033;-81
2021/04/25 00:06:33;;;;;;;6.40;3.80;;;11.70;48.40;;;;;;5028564;28;20026;-81
2021/04/25 00:08:58;;;;;;;7.27;4.27;;;11.70;48.70;;;;;;5030555;28;20063;-81
2021/04/25 00:11:24;;;;;;;5.43;3.97;;;11.60;48.90;;;;;;5050281;28;20049;-81
2021/04/25 00:13:50;;;;;;;8.10;5.40;;;11.60;49.20;;;;;;5030197;28;20170;-80
2021/04/25 00:16:16;;;;;;;7.00;5.10;;;11.50;49.40;;;;;;5046813;28;20025;-81
2021/04/25 00:18:42;;;;;;;13.00;5.57;;;11.50;49.50;;;;;;5054572;28;20083;-80
2021/04/25 00:21:08;;;;;;;5.40;3.80;;;11.40;49.70;;;;;;5036639;28;20044;-80
2021/04/25 00:23:34;;;;;;;6.30;3.63;;;11.30;50.00;;;;;;5035201;28;20017;-81
2021/04/25 00:26:00;;;;;;;8.37;4.50;;;11.30;50.10;;;;;;5052046;28;20022;-80
2021/04/25 00:28:26;;;;;;;6.57;4.27;;;11.30;50.20;;;;;;5036358;28;20029;-81
2021/04/25 00:30:52;;;;;;;6.87;4.13;;;11.20;50.20;;;;;;5036979;28;20032;-81
2021/04/25 00:33:18;;;;;;;9.67;4.10;;;11.30;50.00;;;;;;5054333;28;20024;-81
2021/04/25 00:35:44;;;;;;;8.70;4.13;;;11.20;50.10;;;;;;5034840;28;20060;-81
2021/04/25 00:38:09;;;;;;;8.53;4.07;;;11.20;50.20;;;;;;5035950;28;20413;-82
2021/04/25 00:40:35;;;;;;;9.73;4.13;;;11.10;50.30;;;;;;5032975;28;20041;-81
2021/04/25 00:43:01;;;;;;;8.97;4.33;;;11.10;50.50;;;;;;5049937;28;20104;-81
2021/04/25 00:45:27;;;;;;;9.47;4.30;;;11.10;50.80;;;;;;5036327;28;20021;-81
2021/04/25 00:47:53;;;;;;;5.83;4.00;;;11.00;50.80;;;;;;5019848;28;20507;-81
2021/04/25 00:50:24;;;;;;;11.07;3.90;;;11.00;50.80;;;;;;5036258;28;20051;-81
2021/04/25 00:52:51;;;;;;;7.17;3.97;;;11.10;50.90;;;;;;5036100;28;20771;-81
2021/04/25 00:55:18;;;;;;;6.17;3.97;;;11.00;51.00;;;;;;5035381;28;20124;-81
2021/04/25 00:57:45;;;;;;;8.53;4.10;;;10.90;51.10;;;;;;5035661;28;20056;-80
2021/04/25 01:00:13;;;;;;;5.13;3.83;;;11.00;51.20;;;;;;5036087;28;20025;-81
2021/04/25 01:02:39;;;;;;;7.87;3.70;;;11.00;51.10;;;;;;5035594;28;20055;-81
2021/04/25 01:05:10;;;;;;;6.73;3.67;;;10.90;51.20;;;;;;5035791;28;20140;-81
2021/04/25 01:07:36;;;;;;;5.83;3.90;;;10.90;51.40;;;;;;5036013;28;20040;-82
2021/04/25 01:10:02;;;;;;;7.30;4.00;;;10.90;51.30;;;;;;5034857;28;20484;-82
2021/04/25 01:12:28;;;;;;;6.93;4.07;;;10.90;51.40;;;;;;5035966;28;20025;-82
2021/04/25 01:14:54;;;;;;;7.50;4.07;;;10.80;51.40;;;;;;5035609;28;20112;-82
2021/04/25 01:17:20;;;;;;;5.93;3.80;;;10.80;51.70;;;;;;5054175;28;20035;-82
2021/04/25 01:19:46;;;;;;;9.27;4.40;;;10.80;51.70;;;;;;5031375;28;20119;-82
2021/04/25 01:22:11;;;;;;;6.13;3.13;;;10.80;51.60;;;;;;5034020;28;20033;-82
2021/04/25 01:24:37;;;;;;;7.03;4.20;;;10.70;51.70;;;;;;5050344;28;21981;-82
2021/04/25 01:27:03;;;;;;;5.87;3.90;;;10.70;51.90;;;;;;5034373;28;20033;-81
2021/04/25 01:29:29;;;;;;;7.60;4.03;;;10.60;51.80;;;;;;5050457;28;20053;-82
2021/04/25 01:31:55;;;;;;;5.97;3.73;;;10.50;52.10;;;;;;5027915;28;20084;-80
2021/04/25 01:34:21;;;;;;;9.87;3.47;;;10.40;52.30;;;;;;5035133;28;20496;-82
2021/04/25 01:36:47;;;;;;;8.50;3.93;;;10.40;52.50;;;;;;5035010;28;20037;-82
2021/04/25 01:39:13;;;;;;;8.30;4.60;;;10.30;52.70;;;;;;5053128;28;20106;-82
2021/04/25 01:41:39;;;;;;;7.87;4.33;;;10.30;52.90;;;;;;5034990;28;20033;-82
2021/04/25 01:44:04;;;;;;;7.80;3.83;;;10.40;52.80;;;;;;5035567;28;20033;-82
2021/04/25 01:46:30;;;;;;;5.43;3.53;;;10.30;52.80;;;;;;5035470;28;20089;-82
2021/04/25 01:48:56;;;;;;;8.87;4.07;;;10.30;52.70;;;;;;5045396;28;20018;-82
2021/04/25 01:51:22;;;;;;;7.90;3.97;;;10.30;52.70;;;;;;5033929;28;20028;-82
2021/04/25 01:53:47;;;;;;;8.73;3.87;;;10.20;52.90;;;;;;5034220;28;20075;-82
2021/04/25 01:56:13;;;;;;;4.17;3.63;;;10.20;53.00;;;;;;5034703;28;20774;-81
2021/04/25 01:58:39;;;;;;;7.10;4.07;;;10.20;53.00;;;;;;5035115;28;20112;-81
2021/04/25 02:01:05;;;;;;;9.13;4.03;;;10.20;53.20;;;;;;5035146;28;20029;-82
2021/04/25 02:03:31;;;;;;;6.80;3.73;;;10.20;53.10;;;;;;5052790;28;20041;-82
2021/04/25 02:05:57;;;;;;;6.43;4.03;;;10.20;53.30;;;;;;5033306;28;20021;-82
2021/04/25 02:08:23;;;;;;;6.30;4.07;;;10.10;53.30;;;;;;5033891;28;20033;-82
2021/04/25 02:10:49;;;;;;;8.57;4.17;;;10.10;53.50;;;;;;5025797;28;20040;-82
2021/04/25 02:13:16;;;;;;;7.37;4.30;;;10.00;53.80;;;;;;5029304;28;20401;-82
2021/04/25 02:15:42;;;;;;;6.87;3.93;;;10.00;53.90;;;;;;5030833;28;20021;-82
2021/04/25 02:18:08;;;;;;;10.80;4.90;;;10.00;54.00;;;;;;5052403;28;20087;-82
2021/04/25 02:20:35;;;;;;;13.60;5.73;;;9.90;54.00;;;;;;5025514;28;20033;-82
2021/04/25 02:23:01;;;;;;;6.80;3.73;;;9.90;54.30;;;;;;5050369;28;20100;-82
2021/04/25 02:25:27;;;;;;;8.27;4.57;;;10.00;54.10;;;;;;5051473;28;20108;-82
2021/04/25 02:27:53;;;;;;;5.80;4.13;;;10.00;54.00;;;;;;5033089;28;20025;-81
2021/04/25 02:30:28;;;;;;;9.07;4.10;;;9.80;54.00;;;;;;5034395;28;20029;-81
2021/04/25 02:32:55;;;;;;;7.37;4.20;;;9.80;54.30;;;;;;5032845;28;20044;-82
2021/04/25 02:35:23;;;;;;;5.47;3.47;;;9.90;54.20;;;;;;5034359;28;20387;-82
2021/04/25 02:37:50;;;;;;;6.63;4.13;;;9.80;53.90;;;;;;5051094;28;20076;-82
2021/04/25 02:40:19;;;;;;;9.17;5.10;;;9.80;54.10;;;;;;5033096;28;20037;-82
2021/04/25 02:42:46;;;;;;;7.40;3.90;;;9.70;54.20;;;;;;5030360;28;20021;-82
2021/04/25 02:45:17;;;;;;;12.53;4.47;;;9.70;54.40;;;;;;5034096;28;20049;-81
2021/04/25 02:47:50;;;;;;;7.23;4.13;;;9.70;54.40;;;;;;5033522;28;20031;-84
2021/04/25 02:50:18;;;;;;;8.97;4.03;;;9.80;54.30;;;;;;5026961;28;20515;-84
2021/04/25 02:52:44;;;;;;;9.73;3.70;;;9.80;54.00;;;;;;5051541;28;20116;-81
2021/04/25 02:55:11;;;;;;;9.47;3.90;;;9.70;54.10;;;;;;5048889;28;20041;-81
2021/04/25 02:57:38;;;;;;;5.20;3.63;;;9.80;54.10;;;;;;5033104;28;20032;-81
2021/04/25 03:00:07;;;;;;;9.00;3.57;;;9.80;54.10;;;;;;5034134;28;20743;-81
2021/04/25 03:02:32;;;;;;;5.90;3.80;;;9.70;54.30;;;;;;5042467;28;20218;-81
2021/04/25 03:04:58;;;;;;;9.10;4.70;;;9.70;54.50;;;;;;5033758;28;20029;-81
2021/04/25 03:07:24;;;;;;;9.13;3.63;;;9.70;54.50;;;;;;5033756;28;20471;-82
2021/04/25 03:09:49;;;;;;;11.43;4.43;;;9.70;54.70;;;;;;5029798;28;20038;-80
2021/04/25 03:12:15;;;;;;;7.17;4.50;;;9.70;54.90;;;;;;5031319;28;20396;-80
2021/04/25 03:14:41;;;;;;;7.50;4.67;;;9.70;54.70;;;;;;5031268;28;20392;-81
2021/04/25 03:17:07;;;;;;;6.00;4.30;;;9.60;54.70;;;;;;5025168;28;20044;-81
2021/04/25 03:19:32;;;;;;;11.73;4.80;;;9.70;54.90;;;;;;5025760;28;20025;-81
2021/04/25 03:21:58;;;;;;;9.50;4.60;;;9.70;54.80;;;;;;5031770;28;20033;-80
2021/04/25 03:24:25;;;;;;;7.37;4.20;;;9.80;54.80;;;;;;5030308;28;20022;-82
2021/04/25 03:26:51;;;;;;;8.07;4.37;;;9.70;54.70;;;;;;5030542;28;20084;-82
2021/04/25 03:29:17;;;;;;;6.53;4.33;;;9.70;54.90;;;;;;5030676;28;20753;-81
2021/04/25 03:31:43;;;;;;;7.23;4.70;;;9.70;54.90;;;;;;5030257;28;20038;-82
2021/04/25 03:34:09;;;;;;;7.83;4.20;;;9.70;54.90;;;;;;5030113;28;20021;-81
2021/04/25 03:36:35;;;;;;;6.43;4.43;;;9.70;54.70;;;;;;5029606;28;20159;-81
2021/04/25 03:39:01;;;;;;;7.60;4.33;;;9.70;54.80;;;;;;5028766;28;20124;-81
2021/04/25 03:41:27;;;;;;;11.37;5.17;;;9.70;55.00;;;;;;5027767;28;20120;-82
2021/04/25 03:43:53;;;;;;;8.27;4.30;;;9.70;54.80;;;;;;5029668;28;20129;-81
2021/04/25 03:46:19;;;;;;;9.77;4.60;;;9.70;55.00;;;;;;5030264;28;20025;-82
2021/04/25 03:48:45;;;;;;;7.80;4.40;;;9.70;55.00;;;;;;5029836;28;20389;-82
2021/04/25 03:51:11;;;;;;;6.27;4.23;;;9.70;54.80;;;;;;5025733;28;20033;-82
2021/04/25 03:53:38;;;;;;;8.37;4.33;;;9.70;54.60;;;;;;5034084;28;20022;-81
2021/04/25 03:56:04;;;;;;;12.57;5.47;;;9.80;54.40;;;;;;5030706;28;20025;-82
2021/04/25 03:58:29;;;;;;;7.03;4.53;;;9.90;54.20;;;;;;5034606;28;20044;-81
2021/04/25 04:00:55;;;;;;;10.40;4.10;;;9.90;53.90;;;;;;5033698;28;20021;-82
2021/04/25 04:03:21;;;;;;;9.63;4.20;;;9.90;53.80;;;;;;5033133;28;20495;-82
2021/04/25 04:05:47;;;;;;;9.83;4.50;;;10.00;53.80;;;;;;5033461;28;20716;-81
2021/04/25 04:08:13;;;;;;;6.97;4.80;;;9.90;53.80;;;;;;5034008;28;20059;-82
2021/04/25 04:10:39;;;;;;;9.13;4.93;;;9.90;54.00;;;;;;5034074;28;20125;-82
2021/04/25 04:13:05;;;;;;;8.07;4.40;;;9.80;54.10;;;;;;5033600;28;20025;-83
2021/04/25 04:15:30;;;;;;;5.67;3.70;;;9.90;54.20;;;;;;5031499;28;20033;-83
2021/04/25 04:17:57;;;;;;;9.20;4.50;;;9.90;53.90;;;;;;5037169;28;20418;-84
2021/04/25 04:20:23;;;;;;;7.27;4.17;;;9.90;53.90;;;;;;5034930;28;20084;-84
2021/04/25 04:22:49;;;;;;;7.27;4.17;;;9.90;53.80;;;;;;5034388;28;20232;-84
2021/04/25 04:25:15;;;;;;;7.63;4.67;;;9.90;53.80;;;;;;5033666;28;20025;-83
2021/04/25 04:27:41;;;;;;;8.03;4.50;;;9.90;54.00;;;;;;5033660;28;20029;-83
2021/04/25 04:30:07;;;;;;;7.97;4.50;;;9.90;54.20;;;;;;5037345;28;20022;-83
2021/04/25 04:32:33;;;;;;;7.60;4.23;;;9.80;54.30;;;;;;5034278;28;20041;-83
2021/04/25 04:34:59;;;;;;;6.83;4.70;;;9.70;54.60;;;;;;5033766;28;20021;-83
2021/04/25 04:37:24;;;;;;;8.03;4.60;;;9.70;54.60;;;;;;5035038;28;20346;-83
2021/04/25 04:39:52;;;;;;;7.00;4.37;;;9.70;54.50;;;;;;5035116;28;20032;-83
2021/04/25 04:42:17;;;;;;;9.33;5.03;;;9.80;54.70;;;;;;5031495;28;20065;-83
2021/04/25 04:44:43;;;;;;;6.90;4.57;;;9.90;54.70;;;;;;5025605;28;20503;-83
2021/04/25 04:47:09;;;;;;;8.40;5.57;;;9.90;54.70;;;;;;5032962;28;20105;-84
2021/04/25 04:49:35;;;;;;;11.30;6.97;;;9.90;54.90;;;;;;5033070;28;20389;-83
2021/04/25 04:52:01;;;;;;;101.57;53.87;;;9.90;54.70;;;;;;5026340;28;20036;-85
2021/04/25 04:54:27;;;;;;;81.93;41.57;;;10.00;54.50;;;;;;5031606;28;20079;-85
2021/04/25 04:56:53;;;;;;;180.57;89.50;;;10.10;54.20;;;;;;5024911;28;20036;-84
2021/04/25 04:59:18;;;;;;;144.80;75.63;;;10.20;54.10;;;;;;5027647;28;20025;-85
2021/04/25 05:01:46;;;;;;;91.17;49.60;;;10.20;53.70;;;;;;5031234;28;20034;-86
2021/04/25 05:04:11;;;;;;;32.47;16.13;;;10.30;53.60;;;;;;5032598;28;20025;-85
2021/04/25 05:06:37;;;;;;;34.00;19.40;;;10.20;53.30;;;;;;5033131;28;20503;-82
2021/04/25 05:09:03;;;;;;;39.83;24.20;;;10.30;53.10;;;;;;5032361;28;20116;-83
2021/04/25 05:11:29;;;;;;;11.37;7.13;;;10.30;52.90;;;;;;5052997;28;20112;-82
2021/04/25 05:13:55;;;;;;;12.73;6.13;;;10.40;52.80;;;;;;5035702;28;20116;-82
2021/04/25 05:16:20;;;;;;;9.07;5.73;;;10.40;52.60;;;;;;5033701;28;20028;-83
2021/04/25 05:18:49;;;;;;;8.73;5.53;;;10.40;52.50;;;;;;5049570;28;20040;-86
2021/04/25 05:21:15;;;;;;;13.03;8.97;;;10.40;52.40;;;;;;5054180;28;20044;-84
2021/04/25 05:23:40;;;;;;;12.20;7.03;;;10.40;52.30;;;;;;5052545;28;20017;-83
2021/04/25 05:26:06;;;;;;;9.87;6.17;;;10.40;52.40;;;;;;5034618;28;20031;-83
2021/04/25 05:28:32;;;;;;;12.27;6.57;;;10.40;52.50;;;;;;5051704;28;20029;-84
2021/04/25 05:31:03;;;;;;;30.87;17.67;;;10.40;52.70;;;;;;5034983;28;20485;-83
2021/04/25 05:33:29;;;;;;;23.73;14.07;;;10.40;52.90;;;;;;5019659;28;20029;-83
2021/04/25 05:35:55;;;;;;;15.33;9.57;;;10.40;53.10;;;;;;5034773;28;20032;-82
2021/04/25 05:38:21;;;;;;;9.40;5.83;;;10.40;53.20;;;;;;5033931;28;20025;-83
2021/04/25 05:40:47;;;;;;;7.07;4.97;;;10.50;53.80;;;;;;5050816;28;20029;-83
2021/04/25 05:43:13;;;;;;;15.73;5.30;;;10.50;53.40;;;;;;5048519;28;20029;-83
2021/04/25 05:45:39;;;;;;;12.07;5.73;;;10.50;53.50;;;;;;5055344;28;20099;-85
2021/04/25 05:48:05;;;;;;;9.70;5.33;;;10.50;53.70;;;;;;5038784;28;20182;-84
2021/04/25 05:50:31;;;;;;;13.37;5.70;;;10.50;53.70;;;;;;5034457;28;20032;-84
2021/04/25 05:52:58;;;;;;;12.00;6.20;;;10.50;54.30;;;;;;5054984;28;20021;-84
2021/04/25 05:55:24;;;;;;;7.70;5.80;;;10.50;53.80;;;;;;5052475;28;20047;-84
2021/04/25 05:57:50;;;;;;;14.03;5.87;;;10.50;54.00;;;;;;5034837;28;20108;-85
2021/04/25 06:00:20;;;;;;;9.67;6.17;;;10.50;54.20;;;;;;5053297;28;20082;-84
2021/04/25 06:02:46;;;;;;;11.13;6.30;;;10.50;54.10;;;;;;5033442;28;21065;-84
2021/04/25 06:05:12;;;;;;;10.50;5.70;;;10.60;54.20;;;;;;5034640;28;20017;-84
2021/04/25 06:07:38;;;;;;;13.70;6.13;;;10.60;54.20;;;;;;5029813;28;20519;-83
2021/04/25 06:10:05;;;;;;;9.53;5.53;;;10.70;54.00;;;;;;5031456;28;20060;-84
2021/04/25 06:12:32;;;;;;;15.17;6.70;;;10.80;53.90;;;;;;5032299;28;20057;-82
2021/04/25 06:14:58;;;;;;;13.10;6.17;;;10.80;53.70;;;;;;5028026;28;20022;-82
2021/04/25 06:17:24;;;;;;;10.93;6.57;;;10.90;53.70;;;;;;5040220;28;20025;-83
2021/04/25 06:19:59;;;;;;;13.27;6.80;;;10.90;53.60;;;;;;5037754;28;20037;-83
2021/04/25 06:22:25;;;;;;;9.73;6.67;;;10.90;53.50;;;;;;5036868;28;20087;-84
2021/04/25 06:24:54;;;;;;;11.00;6.33;;;11.00;53.50;;;;;;5031647;28;20544;-84
2021/04/25 06:27:25;;;;;;;12.10;7.00;;;11.00;53.40;;;;;;5032199;28;20080;-84
2021/04/25 06:29:54;;;;;;;10.27;7.47;;;11.10;53.50;;;;;;5033403;28;20104;-84
2021/04/25 06:32:20;;;;;;;14.57;8.07;;;11.20;53.50;;;;;;5032612;28;20084;-84
2021/04/25 06:34:46;;;;;;;16.17;8.80;;;11.20;53.50;;;;;;5032119;28;20071;-84
2021/04/25 06:37:12;;;;;;;15.77;8.10;;;11.20;53.50;;;;;;5032254;28;20034;-84
2021/04/25 06:39:38;;;;;;;12.13;7.30;;;11.30;53.50;;;;;;5031818;28;20028;-83
2021/04/25 06:42:04;;;;;;;12.07;8.13;;;11.30;53.40;;;;;;5031773;28;20029;-83
2021/04/25 06:44:44;;;;;;;13.87;7.70;;;11.30;53.40;;;;;;5033265;28;20032;-82
2021/04/25 06:47:10;;;;;;;16.23;9.43;;;11.40;53.60;;;;;;5032313;28;20028;-83
2021/04/25 06:49:36;;;;;;;12.10;7.80;;;11.40;53.30;;;;;;5039299;28;20455;-82
2021/04/25 06:52:09;;;;;;;11.13;7.83;;;11.40;53.50;;;;;;5030202;28;20026;-82
2021/04/25 06:54:37;;;;;;;17.37;11.03;;;11.40;53.40;;;;;;5030487;28;20037;-83
2021/04/25 06:57:03;;;;;;;16.33;9.17;;;11.50;53.40;;;;;;5030326;28;20477;-83
2021/04/25 06:59:29;;;;;;;13.57;8.33;;;11.50;53.30;;;;;;5030896;28;20032;-83
2021/04/25 07:01:54;;;;;;;11.27;7.50;;;11.50;53.40;;;;;;5029183;28;20025;-83
2021/04/25 07:04:20;;;;;;;12.47;8.70;;;11.60;53.50;;;;;;5027486;28;20030;-82
2021/04/25 07:06:46;;;;;;;14.30;8.77;;;11.70;53.40;;;;;;5030498;28;20028;-83
2021/04/25 07:09:11;;;;;;;12.10;8.13;;;11.80;53.40;;;;;;5025696;28;20017;-81
2021/04/25 07:11:37;;;;;;;14.97;8.47;;;11.80;53.30;;;;;;5034151;28;20072;-80
2021/04/25 07:14:03;;;;;;;17.27;8.27;;;11.90;53.20;;;;;;5033797;28;20083;-80
2021/04/25 07:16:30;;;;;;;12.13;7.47;;;12.10;53.10;;;;;;5034283;28;20056;-81
2021/04/25 07:18:56;;;;;;;13.30;8.20;;;12.20;52.70;;;;;;5029364;28;20119;-81
2021/04/25 07:21:22;;;;;;;11.20;7.53;;;12.30;52.80;;;;;;5034228;28;20060;-81
2021/04/25 07:23:48;;;;;;;16.13;7.43;;;12.40;52.70;;;;;;5030788;28;20025;-81
2021/04/25 07:26:14;;;;;;;11.40;7.23;;;12.50;52.60;;;;;;5034167;28;20075;-81
2021/04/25 07:28:40;;;;;;;10.40;6.40;;;12.70;52.60;;;;;;5033815;28;20507;-81
2021/04/25 07:31:06;;;;;;;10.77;6.57;;;12.90;52.10;;;;;;5034278;28;20032;-81
2021/04/25 07:33:33;;;;;;;10.87;6.57;;;13.00;52.10;;;;;;5034003;28;20080;-82
2021/04/25 07:35:59;;;;;;;12.37;6.57;;;13.30;52.20;;;;;;5033513;28;20029;-81
2021/04/25 07:38:24;;;;;;;9.13;6.13;;;13.50;51.80;;;;;;5034450;28;20119;-82
2021/04/25 07:40:51;;;;;;;9.00;6.23;;;13.60;51.50;;;;;;5033906;28;20547;-81
2021/04/25 07:43:17;;;;;;;9.70;6.40;;;13.80;51.30;;;;;;5033852;28;20048;-82
2021/04/25 07:45:42;;;;;;;12.93;6.83;;;13.90;51.20;;;;;;5032568;28;20138;-82
2021/04/25 07:48:08;;;;;;;13.63;7.20;;;14.00;51.00;;;;;;5050418;28;20417;-82
2021/04/25 07:50:37;;;;;;;10.60;6.30;;;14.20;51.00;;;;;;5022638;28;20025;-82
2021/04/25 07:53:05;;;;;;;8.73;6.17;;;14.30;50.50;;;;;;5033488;28;20501;-82
2021/04/25 07:55:39;;;;;;;20.40;7.47;;;14.50;50.20;;;;;;5030774;28;20037;-82
2021/04/25 07:58:05;;;;;;;9.97;6.30;;;14.60;50.30;;;;;;5030928;28;20029;-82
2021/04/25 08:00:30;;;;;;;10.17;6.63;;;14.70;50.10;;;;;;5051974;28;20025;-82
2021/04/25 08:02:56;;;;;;;12.07;6.73;;;14.90;49.90;;;;;;5031199;28;20029;-82
2021/04/25 08:05:22;;;;;;;11.93;6.83;;;15.10;49.30;;;;;;5033164;28;20040;-81
2021/04/25 08:07:48;;;;;;;12.53;6.57;;;15.10;49.10;;;;;;5034529;28;20025;-82
2021/04/25 08:10:13;;;;;;;7.80;5.77;;;15.40;48.80;;;;;;5051250;28;20033;-82
2021/04/25 08:12:39;;;;;;;10.63;6.40;;;15.60;48.50;;;;;;5034168;28;20021;-82
2021/04/25 08:15:06;;;;;;;8.20;5.80;;;15.80;48.10;;;;;;5033528;28;20028;-82
2021/04/25 08:17:31;;;;;;;11.13;6.17;;;16.00;47.70;;;;;;5029828;28;20032;-82
2021/04/25 08:19:58;;;;;;;8.80;5.60;;;16.10;47.10;;;;;;5027739;28;20362;-82
2021/04/25 08:22:24;;;;;;;15.27;5.90;;;16.20;47.10;;;;;;5024205;28;20041;-82
2021/04/25 08:24:49;;;;;;;11.73;5.83;;;16.40;47.10;;;;;;5045343;28;20096;-82
2021/04/25 08:27:15;;;;;;;9.13;4.77;;;16.60;46.70;;;;;;5031660;28;20017;-83
2021/04/25 08:29:41;;;;;;;7.78;5.05;;;16.80;46.20;;;;;;5026438;28;20071;-83
2021/04/25 08:32:07;;;;;;;10.85;6.25;;;16.90;45.70;;;;;;5049334;28;20082;-82
2021/04/25 08:34:33;;;;;;;9.75;5.00;;;17.10;45.40;;;;;;5029204;28;20036;-83
2021/04/25 08:36:58;;;;;;;7.97;5.13;;;17.30;44.90;;;;;;5051626;28;20025;-83
2021/04/25 08:39:24;;;;;;;6.47;4.63;;;17.40;44.30;;;;;;5052517;28;20033;-83
2021/04/25 08:41:51;;;;;;;13.13;4.93;;;17.50;43.90;;;;;;5032225;28;20039;-83
2021/04/25 08:44:19;;;;;;;9.02;5.05;;;17.60;43.60;;;;;;5051772;28;20044;-83
2021/04/25 08:46:50;;;;;;;7.65;5.25;;;17.80;43.00;;;;;;5034536;28;20047;-83
2021/04/25 08:49:24;;;;;;;8.02;4.82;;;17.90;42.30;;;;;;5035340;28;20550;-83
2021/04/25 08:51:51;;;;;;;7.38;4.35;;;17.80;42.10;;;;;;5029984;28;20029;-83
2021/04/25 08:54:22;;;;;;;7.72;4.18;;;17.90;42.10;;;;;;5048112;28;20025;-83
2021/04/25 08:56:48;;;;;;;7.38;4.07;;;18.00;41.60;;;;;;5035194;28;20025;-83
2021/04/25 08:59:14;;;;;;;8.75;3.90;;;18.20;41.50;;;;;;5044119;28;20455;-83
2021/04/25 09:01:40;;;;;;;7.93;4.82;;;18.30;41.10;;;;;;5022186;28;20060;-83
2021/04/25 09:04:06;;;;;;;9.45;5.25;;;18.40;40.90;;;;;;5027277;28;20067;-83
2021/04/25 09:06:32;;;;;;;11.02;5.28;;;18.50;40.60;;;;;;5032374;28;20075;-83
2021/04/25 09:09:00;;;;;;;10.20;6.53;;;18.50;40.20;;;;;;5026272;28;20496;-83
2021/04/25 09:11:40;;;;;;;10.52;6.57;;;18.60;39.90;;;;;;5033316;28;20040;-83
2021/04/25 09:14:23;;;;;;;14.98;8.95;;;18.60;39.50;;;;;;5034070;28;20029;-84
2021/04/25 09:16:54;;;;;;;14.85;8.90;;;18.80;39.00;;;;;;5033837;28;20029;-83
2021/04/25 09:19:22;;;;;;;11.47;8.47;;;18.70;38.70;;;;;;5030257;28;20510;-83
2021/04/25 09:21:58;;;;;;;16.98;9.05;;;18.70;38.70;;;;;;5025854;28;20116;-83
2021/04/25 09:24:29;;;;;;;12.57;8.55;;;18.50;38.10;;;;;;5044908;28;20036;-84
2021/04/25 09:26:56;;;;;;;16.90;10.88;;;18.50;38.10;;;;;;5032814;28;20392;-83
2021/04/25 09:29:27;;;;;;;15.73;9.65;;;18.30;37.60;;;;;;5035486;28;20036;-83
2021/04/25 09:31:54;;;;;;;16.52;10.38;;;18.20;37.80;;;;;;5041831;28;20063;-84
2021/04/25 09:34:28;;;;;;;13.32;8.77;;;18.40;37.70;;;;;;5028663;28;20094;-84
2021/04/25 09:36:55;;;;;;;19.20;12.60;;;18.50;37.60;;;;;;5053511;28;20025;-84
2021/04/25 09:39:23;;;;;;;17.70;10.73;;;18.60;37.50;;;;;;5036064;28;20037;-84
2021/04/25 09:41:49;;;;;;;18.67;11.15;;;18.70;37.40;;;;;;5031341;28;20033;-83
2021/04/25 09:44:33;;;;;;;16.02;9.40;;;18.70;37.30;;;;;;5037129;28;20032;-83
2021/04/25 09:47:03;;;;;;;17.30;11.00;;;18.90;37.10;;;;;;5036719;28;20025;-83
2021/04/25 09:49:42;;;;;;;23.83;16.75;;;19.00;37.00;;;;;;5035154;28;20389;-83
2021/04/25 09:52:10;;;;;;;22.35;12.88;;;18.90;36.50;;;;;;5049297;28;20071;-83
2021/04/25 09:54:36;;;;;;;45.20;21.70;;;18.80;36.30;;;;;;5034576;28;20451;-83
2021/04/25 09:57:02;;;;;;;289.85;105.45;;;18.80;36.60;;;;;;5040113;28;20024;-83
2021/04/25 09:59:28;;;;;;;151.57;56.30;;;18.90;36.70;;;;;;5035781;28;20036;-83
2021/04/25 10:02:04;;;;;;;87.15;36.40;;;19.00;36.80;;;;;;5054490;28;20028;-83
2021/04/25 10:04:37;;;;;;;76.47;32.55;;;19.20;36.90;;;;;;5045762;28;20020;-83
2021/04/25 10:07:05;;;;;;;39.00;19.55;;;19.20;36.50;;;;;;5029823;28;20060;-84
2021/04/25 10:09:31;;;;;;;35.50;19.85;;;19.40;36.30;;;;;;5026862;28;20043;-83
2021/04/25 10:12:00;;;;;;;43.47;20.65;;;19.60;35.90;;;;;;5027270;28;20040;-83
2021/04/25 10:14:28;;;;;;;33.60;16.60;;;19.60;35.80;;;;;;5041069;28;20034;-84
2021/04/25 10:16:54;;;;;;;22.73;13.38;;;19.60;35.80;;;;;;5047885;28;20068;-84
2021/04/25 10:19:20;;;;;;;24.27;13.82;;;19.80;35.70;;;;;;5033429;28;20090;-82
2021/04/25 10:21:47;;;;;;;34.72;16.48;;;19.80;35.50;;;;;;5052354;28;20481;-82
2021/04/25 10:24:23;;;;;;;22.55;13.07;;;19.90;35.30;;;;;;5023769;28;20056;-83
2021/04/25 10:27:10;;;;;;;19.58;11.85;;;20.00;34.90;;;;;;5025782;28;20021;-83
2021/04/25 10:29:44;;;;;;;24.85;12.07;;;20.10;34.60;;;;;;5033704;28;20056;-84
2021/04/25 10:32:11;;;;;;;18.25;11.32;;;20.30;34.70;;;;;;5032670;28;20033;-83
2021/04/25 10:34:38;;;;;;;18.15;11.82;;;20.20;34.30;;;;;;5039055;28;20028;-84
2021/04/25 10:37:09;;;;;;;19.48;10.48;;;20.10;34.30;;;;;;5033721;28;20427;-82
2021/04/25 10:39:51;;;;;;;16.23;10.10;;;20.00;34.50;;;;;;5035146;28;20025;-84
2021/04/25 10:45:07;;;;;;;17.65;10.07;;;19.60;34.30;;;;;;5052071;28;20063;-82
2021/04/25 10:47:35;;;;;;;18.23;10.93;;;19.50;34.30;;;;;;5037276;28;20048;-82
2021/04/25 10:50:21;;;;;;;21.40;11.75;;;19.60;34.80;;;;;;5024281;28;21385;-82
2021/04/25 10:52:51;;;;;;;17.13;9.68;;;19.50;34.30;;;;;;5020546;28;20037;-82
2021/04/25 10:55:20;;;;;;;19.10;9.93;;;19.50;34.30;;;;;;5021593;28;20032;-82
2021/04/25 10:57:55;;;;;;;13.43;10.18;;;19.30;34.10;;;;;;5027920;28;20044;-82
2021/04/25 11:03:01;;;;;;;14.32;8.95;;;19.10;34.30;;;;;;5040497;28;20041;-82
2021/04/25 11:05:36;;;;;;;11.52;8.38;;;19.10;34.80;;;;;;5044063;28;20033;-82
2021/04/25 11:08:06;;;;;;;15.98;8.65;;;19.10;34.90;;;;;;5044435;28;20043;-83
2021/04/25 11:10:51;;;;;;;20.20;10.40;;;19.00;34.90;;;;;;5048990;28;20272;-82
2021/04/25 11:13:45;;;;;;;10.02;7.75;;;19.00;35.00;;;;;;5031027;28;20024;-82
2021/04/25 11:16:14;;;;;;;12.00;7.97;;;19.20;35.20;;;;;;5046382;28;20059;-82
2021/04/25 11:19:05;;;;;;;12.05;7.88;;;19.50;35.20;;;;;;5032867;28;20033;-82
2021/04/25 11:21:37;;;;;;;13.60;7.88;;;19.70;35.20;;;;;;5032014;28;20543;-81
2021/04/25 11:24:06;;;;;;;15.23;8.63;;;19.70;35.10;;;;;;5051853;28;20029;-82
2021/04/25 11:26:38;;;;;;;15.35;8.88;;;19.90;34.80;;;;;;5032859;28;20538;-82
2021/04/25 11:29:06;;;;;;;15.18;8.45;;;20.00;34.30;;;;;;5047182;28;20029;-81
2021/04/25 11:31:47;;;;;;;11.45;7.43;;;20.10;34.50;;;;;;5052344;28;20071;-82
2021/04/25 11:34:31;;;;;;;13.20;8.25;;;20.20;34.60;;;;;;5035514;28;20032;-82
2021/04/25 11:37:18;;;;;;;13.18;8.27;;;20.00;34.40;;;;;;5050867;28;20040;-81
2021/04/25 11:39:47;;;;;;;17.52;8.02;;;20.00;34.10;;;;;;5055100;28;20028;-81
2021/04/25 11:42:23;;;;;;;11.30;7.65;;;20.10;34.40;;;;;;5049315;28;20025;-82
2021/04/25 11:44:49;;;;;;;10.73;7.82;;;20.40;34.00;;;;;;5028296;28;20021;-81
2021/04/25 11:47:16;;;;;;;13.48;7.35;;;20.40;33.90;;;;;;5033125;28;20021;-81
2021/04/25 11:49:49;;;;;;;11.27;7.25;;;20.60;33.90;;;;;;5034244;28;20029;-82
2021/04/25 11:52:32;;;;;;;14.50;7.85;;;20.70;33.40;;;;;;5035786;28;20025;-81
2021/04/25 11:55:11;;;;;;;14.40;7.90;;;20.70;33.60;;;;;;5052423;28;20032;-82
2021/04/25 11:57:51;;;;;;;13.07;7.40;;;20.50;33.70;;;;;;5032277;28;20084;-81
2021/04/25 12:00:22;;;;;;;12.38;8.65;;;20.50;33.80;;;;;;5052096;28;20025;-81
2021/04/25 12:03:07;;;;;;;16.50;8.80;;;20.60;33.80;;;;;;5033632;28;20111;-82
2021/04/25 12:05:38;;;;;;;11.68;7.22;;;20.50;33.60;;;;;;5032563;28;20447;-82
2021/04/25 12:08:06;;;;;;;11.88;7.95;;;20.50;33.50;;;;;;5024881;28;20032;-81
2021/04/25 12:10:49;;;;;;;10.70;7.60;;;20.70;33.40;;;;;;5028775;28;20578;-83
2021/04/25 12:13:23;;;;;;;13.73;7.38;;;20.70;33.20;;;;;;5028969;28;20044;-84
2021/04/25 12:15:54;;;;;;;9.32;6.88;;;20.80;33.60;;;;;;5034043;28;20045;-83
2021/04/25 12:18:36;;;;;;;8.60;6.72;;;20.90;33.60;;;;;;5035022;28;20116;-83
2021/04/25 12:21:21;;;;;;;13.73;8.05;;;21.00;33.70;;;;;;5033407;28;20043;-83
2021/04/25 12:23:49;;;;;;;16.52;6.70;;;21.10;33.70;;;;;;5046353;28;20068;-83
2021/04/25 12:26:18;;;;;;;12.98;7.72;;;21.10;33.60;;;;;;5029223;28;20046;-84
2021/04/25 12:28:50;;;;;;;9.57;6.47;;;21.20;33.40;;;;;;5036097;28;20393;-83
2021/04/25 12:31:18;;;;;;;11.50;7.05;;;21.10;33.50;;;;;;5033700;28;20032;-83
2021/04/25 12:33:55;;;;;;;11.23;7.30;;;21.10;33.70;;;;;;5022886;28;20033;-84
2021/04/25 12:36:24;;;;;;;14.93;7.20;;;21.20;33.70;;;;;;5032846;28;20025;-83
2021/04/25 12:38:56;;;;;;;13.88;7.43;;;21.30;33.70;;;;;;5034879;28;20031;-83
2021/04/25 12:41:23;;;;;;;;;;;21.30;33.70;;;;;;5026537;28;20473;-84
2021/04/25 12:43:49;;;;;;;12.68;8.05;;;21.30;33.80;;;;;;5034040;28;19909;-83
2021/04/25 12:46:20;;;;;;;10.77;7.63;;;21.30;33.70;;;;;;5033699;28;20032;-84
2021/04/25 12:48:57;;;;;;;13.85;8.60;;;21.30;33.60;;;;;;5034795;28;20461;-83
2021/04/25 12:51:52;;;;;;;9.73;6.68;;;21.30;33.40;;;;;;5034221;28;20306;-84
2021/04/25 12:54:20;;;;;;;15.30;7.45;;;21.30;33.60;;;;;;5015624;28;20048;-83